Tuesday, March 03, 2015
00:36 UTC
  |  Log In   |  Register Free
Airport Search:

Raleigh-Durham International Airport
(KRDU)

FAA data valid effective January 08, 2015 - March 05, 2015 (unless otherwise noted).

 
 
 
 
 
 
 
 
 
 
 
 
 
 

Current Aviation Weather for Raleigh-Durham International Airport (KRDU)

The most recent METAR observation for KRDU was updated at: 0014
METAR Summary (Translated METAR)
KRDU
022351Z 03005KT 10SM FEW180 BKN250 11/M06 A3029 RMK AO2 SLP257 T01061061 10161 20106 53017
KIGX
022356Z AUTO 01004KT 10SM CLR 11/M03 A3029 RMK AO2 SLP256 T01061033 10156 20078 53015 TSNO
(14 nm NW from KRDU)
KTTA
022355Z AUTO 02005KT 10SM CLR 10/00 A3027 RMK AO2 T01021003 10171 20102
(23.4 nm SW from KRDU)
TAF Summary (Translated TAF)
KRDU
021735Z 0218/0318 33010KT P6SM SCT025 BKN250 TEMPO 0219/0221 33012G19KT FM030000 07003KT P6SM SCT025 TEMPO 0302/0306 BKN025 FM030800 07005KT P6SM SCT025 OVC050 FM031500 11006KT 5SM -DZ BR OVC025
  Airport Weather Conditions for KRDU

 Current Weather at RDU
51° F
Mostly Cloudy
Northeast winds at 5.8 mph
RDU NOAA Radar

Pressure: 30.29 in
Humidity: 31%
Wind: Northeast at 5.8 MPH (5 KT)
Dew Point: 21.0°F
Visibility: 10.00 mi


Airport Weather Forecast for KRDU

Translated METAR and TAF for KRDU
Translated METAR for KRDU (0036 UTC 03 March 2015)
found at http://aviationweather.gov/adds/metars/
 
METAR text: KRDU 022351Z 03005KT 10SM FEW180 BKN250 11/M06 A3029 RMK AO2 SLP257 T01061061 10161 20106 53017
Conditions at: KRDU (RALEIGH/DURHAM , NC, US) observed 2351 UTC 02 March 2015
Temperature: 10.6°C (51°F)
Dewpoint: -6.1°C (21°F) [RH = 30%]
Pressure (altimeter): 30.29 inches Hg (1025.8 mb)
[Sea-level pressure: 1025.7 mb]
Winds: from the NNE (30 degrees) at 6 MPH (5 knots; 2.6 m/s)
Visibility: 10 or more miles (16+ km)
Ceiling: 25000 feet AGL
Clouds: few clouds at 18000 feet AGL
broken clouds at 25000 feet AGL
Weather: no significant weather observed at this time
Translated TAF for KRDU
Forecast for: KRDU (RALEIGH/DURHAM , NC, US)
TAF Text: KRDU 022340Z 0300/0324 03005KT P6SM FEW050 BKN250
Forecast period: 0000 to 0800 UTC 03 March 2015
Forecast type: FROM: standard forecast or significant change
Winds: from the NNE (30 degrees) at 6 MPH (5 knots; 2.6 m/s)
Visibility: 6 or more miles (10+ km)
Ceiling: 25000 feet AGL
Clouds: few clouds at 5000 feet AGL
broken clouds at 25000 feet AGL
Weather: no significant weather forecast for this period
TAF Text: TEMPO 0302/0306 BKN015
Forecast period: 0200 to 0600 UTC 03 March 2015
Forecast type: TEMPORARY: The following changes expected for less than half the time period
Ceiling: 1500 feet AGL
Clouds: broken clouds at 1500 feet AGL
Weather: no significant weather forecast for this period
TAF Text: FM030800 07006KT P6SM BKN040
Forecast period: 0800 to 1800 UTC 03 March 2015
Forecast type: FROM: standard forecast or significant change
Winds: from the ENE (70 degrees) at 7 MPH (6 knots; 3.1 m/s)
Visibility: 6 or more miles (10+ km)
Ceiling: 4000 feet AGL
Clouds: broken clouds at 4000 feet AGL
Weather: no significant weather forecast for this period
TAF Text: TEMPO 0312/0315 6SM -RA BR OVC025
Forecast period: 1200 to 1500 UTC 03 March 2015
Forecast type: TEMPORARY: The following changes expected for less than half the time period
Visibility: 6 miles (10 km)
Ceiling: 2500 feet AGL
Clouds: overcast cloud deck at 2500 feet AGL
Weather: -RA BR  (light rain, mist)
TAF Text: FM031800 08006KT P6SM BKN025
Forecast period: 1800 UTC 03 March 2015 to 0000 UTC 04 March 2015
Forecast type: FROM: standard forecast or significant change
Winds: from the E (80 degrees) at 7 MPH (6 knots; 3.1 m/s)
Visibility: 6 or more miles (10+ km)
Ceiling: 2500 feet AGL
Clouds: broken clouds at 2500 feet AGL
Weather: no significant weather forecast for this period

Find All Airport Services Find A Hotel Find A Rental Car Find A Golf Course Find A Restaurant $100 Hamburger



FBO's on the Field
FBO Company Facility Photos Services Transportation Aviation Fuel Prices: Prices include tax
Catering Weather Repair Courtesy Rental Type 100LL JetA JetA+ MOGAS 8087
 
Landmark Aviation - RDU

Currently rated 4.4 by 2 people
FS:Shell
Last Updated: Mar-02
Login to update fuel prices
SS:
Contact Landmark Aviation - RDUMore FBO Information
 
TAC Air - RDU

Currently rated 1.8 by 3 people
FS:Avfuel
Last Updated: Feb-18
Login to update fuel prices
SS:
Contact TAC Air - RDUMore FBO Information
 
Add another FBO Facility Photos Catering Weather Repair Courtesy Rental Type 100LL JetA JetA+ MOGAS 8087
Services Transportation Aviation Fuel Prices: Prices include tax


model-print
model-print
model-print
model-print